Pagina principale
METAR-TAF:

METAR-TAF

Aeroporti :

Aeroporto di Podgorica

Podgorica, Montenegro

latitudine: 42-26N, longitudine: 019-17E, altezza: 53 m

Osservazione

Il bollettino è stato emesso 32 minuti fa, alle 05:00 UTC
Vento 3 kt da nord/nord-ovest
Temperature 1°C
Umidità 100%
Pressione 1022 hPa
Visibilità 10 km o più
nessuna nube inferiore a 1500 m e nessun cumulonembo

METAR: LYPG 200500Z 34003KT CAVOK 01/01 Q1022 NOSIG

Ora: 06:32 (05:32 UTC)

Previsione

Il bollettino è stato emesso 6 ore e 32 minuti fa, alle 23:00 UTC
Previsione valida dal 20 alle 00 UTC al 20 alle 24 UTC
Vento 5 kt da nord
Visibilità 10 km o più
nessuna nube inferiore a 1500 m e nessun cumulonembo

TAF: LYPG 192300Z 2000/2024 36005KT CAVOK TX16/2013Z TN01/2006Z

Osservazioni e previsioni meteorologiche di più di 4000 aeroporti (messaggi METAR e TAF).

Le stazioni disponibili sono rappresentate dai dischi gialli e rossi sulla carta.

Puntare il mouse per vedere il nome della stazione.

Clicca sopra per visualizzare le osservazioni e previsioni meteorologiche.

Per cambiare la mappa : fare clic sui pulsanti verdi con una croce nera per ingrandire, il pulsante verde con un trattino per diminuire, o sulla freccia verde per le mappe adiacenti.


METAR-TAF: